sensor_id;sensor_type;location;lat;lon;timestamp;temperature;humidity
49441;DHT22;35317;51.978;6.296;2023-04-24T00:00:14;10.70;99.90
49441;DHT22;35317;51.978;6.296;2023-04-24T00:05:16;10.70;99.90
49441;DHT22;35317;51.978;6.296;2023-04-24T00:10:18;10.70;99.90
49441;DHT22;35317;51.978;6.296;2023-04-24T00:15:19;10.80;99.90
49441;DHT22;35317;51.978;6.296;2023-04-24T00:20:20;10.80;99.90
49441;DHT22;35317;51.978;6.296;2023-04-24T00:25:21;10.80;99.90
49441;DHT22;35317;51.978;6.296;2023-04-24T00:30:22;10.90;99.90
49441;DHT22;35317;51.978;6.296;2023-04-24T00:35:23;10.90;99.90
49441;DHT22;35317;51.978;6.296;2023-04-24T00:40:24;10.90;99.90
49441;DHT22;35317;51.978;6.296;2023-04-24T00:45:25;10.90;99.90
49441;DHT22;35317;51.978;6.296;2023-04-24T00:50:26;10.90;99.90
49441;DHT22;35317;51.978;6.296;2023-04-24T00:55:27;11.00;99.90
49441;DHT22;35317;51.978;6.296;2023-04-24T01:00:27;10.90;99.90
49441;DHT22;35317;51.978;6.296;2023-04-24T01:05:28;11.00;99.90
49441;DHT22;35317;51.978;6.296;2023-04-24T01:10:29;11.00;99.90
49441;DHT22;35317;51.978;6.296;2023-04-24T01:15:32;11.00;99.90
49441;DHT22;35317;51.978;6.296;2023-04-24T01:20:33;11.00;99.90
49441;DHT22;35317;51.978;6.296;2023-04-24T01:25:35;11.00;99.90
49441;DHT22;35317;51.978;6.296;2023-04-24T01:30:36;10.90;99.90
49441;DHT22;35317;51.978;6.296;2023-04-24T01:35:37;11.00;99.90
49441;DHT22;35317;51.978;6.296;2023-04-24T01:40:38;11.00;99.90
49441;DHT22;35317;51.978;6.296;2023-04-24T01:45:39;11.00;99.90
49441;DHT22;35317;51.978;6.296;2023-04-24T01:50:40;10.90;99.90
49441;DHT22;35317;51.978;6.296;2023-04-24T01:55:41;10.90;99.90
49441;DHT22;35317;51.978;6.296;2023-04-24T02:00:42;10.90;99.90
49441;DHT22;35317;51.978;6.296;2023-04-24T02:05:45;10.90;99.90
49441;DHT22;35317;51.978;6.296;2023-04-24T02:10:46;10.90;99.90
49441;DHT22;35317;51.978;6.296;2023-04-24T02:15:47;10.90;99.90
49441;DHT22;35317;51.978;6.296;2023-04-24T02:20:48;10.80;99.90
49441;DHT22;35317;51.978;6.296;2023-04-24T02:25:49;10.90;99.90
49441;DHT22;35317;51.978;6.296;2023-04-24T02:30:50;10.80;99.90
49441;DHT22;35317;51.978;6.296;2023-04-24T02:35:51;10.80;99.90
49441;DHT22;35317;51.978;6.296;2023-04-24T02:40:52;10.80;99.90
49441;DHT22;35317;51.978;6.296;2023-04-24T02:45:52;10.80;99.90
49441;DHT22;35317;51.978;6.296;2023-04-24T02:50:53;10.70;99.90
49441;DHT22;35317;51.978;6.296;2023-04-24T02:55:54;10.70;99.90
49441;DHT22;35317;51.978;6.296;2023-04-24T03:00:55;10.60;99.90
49441;DHT22;35317;51.978;6.296;2023-04-24T03:05:56;10.60;99.90
49441;DHT22;35317;51.978;6.296;2023-04-24T03:10:57;10.60;99.90
49441;DHT22;35317;51.978;6.296;2023-04-24T03:15:58;10.50;99.90
49441;DHT22;35317;51.978;6.296;2023-04-24T03:21:00;10.50;99.90
49441;DHT22;35317;51.978;6.296;2023-04-24T03:26:01;10.50;99.90
49441;DHT22;35317;51.978;6.296;2023-04-24T03:31:03;10.60;99.90
49441;DHT22;35317;51.978;6.296;2023-04-24T03:36:04;10.50;99.90
49441;DHT22;35317;51.978;6.296;2023-04-24T03:41:05;10.50;99.90
49441;DHT22;35317;51.978;6.296;2023-04-24T03:46:06;10.50;99.90
49441;DHT22;35317;51.978;6.296;2023-04-24T03:51:09;10.40;99.90
49441;DHT22;35317;51.978;6.296;2023-04-24T03:56:10;10.40;99.90
49441;DHT22;35317;51.978;6.296;2023-04-24T04:01:11;10.30;99.90
49441;DHT22;35317;51.978;6.296;2023-04-24T04:06:12;10.30;99.90
49441;DHT22;35317;51.978;6.296;2023-04-24T04:11:13;10.20;99.90
49441;DHT22;35317;51.978;6.296;2023-04-24T04:16:14;10.20;99.90
49441;DHT22;35317;51.978;6.296;2023-04-24T04:21:17;10.20;99.90
49441;DHT22;35317;51.978;6.296;2023-04-24T04:26:17;10.20;99.90
49441;DHT22;35317;51.978;6.296;2023-04-24T04:31:20;10.20;99.90
49441;DHT22;35317;51.978;6.296;2023-04-24T04:36:21;10.20;99.90
49441;DHT22;35317;51.978;6.296;2023-04-24T04:41:22;10.10;99.90
49441;DHT22;35317;51.978;6.296;2023-04-24T04:46:23;10.10;99.90
49441;DHT22;35317;51.978;6.296;2023-04-24T04:51:26;10.10;99.90
49441;DHT22;35317;51.978;6.296;2023-04-24T04:56:27;10.10;99.90
49441;DHT22;35317;51.978;6.296;2023-04-24T05:01:28;10.10;99.90
49441;DHT22;35317;51.978;6.296;2023-04-24T05:06:29;10.10;99.90
49441;DHT22;35317;51.978;6.296;2023-04-24T05:11:31;10.10;99.90
49441;DHT22;35317;51.978;6.296;2023-04-24T05:16:32;10.00;99.90
49441;DHT22;35317;51.978;6.296;2023-04-24T05:21:32;10.00;99.90
49441;DHT22;35317;51.978;6.296;2023-04-24T05:26:33;10.10;99.90
49441;DHT22;35317;51.978;6.296;2023-04-24T05:31:34;10.10;99.90
49441;DHT22;35317;51.978;6.296;2023-04-24T05:36:35;10.10;99.90
49441;DHT22;35317;51.978;6.296;2023-04-24T05:41:36;10.10;99.90
49441;DHT22;35317;51.978;6.296;2023-04-24T05:46:37;10.10;99.90
49441;DHT22;35317;51.978;6.296;2023-04-24T05:51:37;10.10;99.90
49441;DHT22;35317;51.978;6.296;2023-04-24T05:56:40;10.10;99.90
49441;DHT22;35317;51.978;6.296;2023-04-24T06:01:41;10.20;99.90
49441;DHT22;35317;51.978;6.296;2023-04-24T06:06:42;10.20;99.90
49441;DHT22;35317;51.978;6.296;2023-04-24T06:11:43;10.20;99.90
49441;DHT22;35317;51.978;6.296;2023-04-24T06:16:43;10.20;99.90
49441;DHT22;35317;51.978;6.296;2023-04-24T06:21:44;10.20;99.90
49441;DHT22;35317;51.978;6.296;2023-04-24T06:26:45;10.10;99.90
49441;DHT22;35317;51.978;6.296;2023-04-24T06:31:46;10.10;99.90
49441;DHT22;35317;51.978;6.296;2023-04-24T06:36:47;10.10;99.90
49441;DHT22;35317;51.978;6.296;2023-04-24T06:41:48;10.20;99.90
49441;DHT22;35317;51.978;6.296;2023-04-24T06:46:49;10.20;99.90
49441;DHT22;35317;51.978;6.296;2023-04-24T06:51:49;10.30;99.90
49441;DHT22;35317;51.978;6.296;2023-04-24T06:56:50;10.30;99.90
49441;DHT22;35317;51.978;6.296;2023-04-24T07:01:52;10.30;99.90
49441;DHT22;35317;51.978;6.296;2023-04-24T07:06:53;10.40;99.90
49441;DHT22;35317;51.978;6.296;2023-04-24T07:11:58;10.50;99.90
49441;DHT22;35317;51.978;6.296;2023-04-24T07:16:58;10.50;99.90
49441;DHT22;35317;51.978;6.296;2023-04-24T07:21:59;10.50;99.90
49441;DHT22;35317;51.978;6.296;2023-04-24T07:27:00;10.50;99.90
49441;DHT22;35317;51.978;6.296;2023-04-24T07:32:03;10.50;99.90
49441;DHT22;35317;51.978;6.296;2023-04-24T07:37:04;10.40;99.90
49441;DHT22;35317;51.978;6.296;2023-04-24T07:42:05;10.40;99.90
49441;DHT22;35317;51.978;6.296;2023-04-24T07:47:06;10.30;99.90
49441;DHT22;35317;51.978;6.296;2023-04-24T07:52:07;10.30;99.90
49441;DHT22;35317;51.978;6.296;2023-04-24T07:57:08;10.40;99.90
49441;DHT22;35317;51.978;6.296;2023-04-24T08:02:08;10.50;99.90
49441;DHT22;35317;51.978;6.296;2023-04-24T08:07:10;10.60;99.90
49441;DHT22;35317;51.978;6.296;2023-04-24T08:12:13;10.60;99.90
49441;DHT22;35317;51.978;6.296;2023-04-24T08:17:14;10.50;99.90
49441;DHT22;35317;51.978;6.296;2023-04-24T08:22:15;10.40;99.90
49441;DHT22;35317;51.978;6.296;2023-04-24T08:27:16;10.30;99.90
49441;DHT22;35317;51.978;6.296;2023-04-24T08:32:17;10.20;99.90
49441;DHT22;35317;51.978;6.296;2023-04-24T08:37:17;10.20;99.90
49441;DHT22;35317;51.978;6.296;2023-04-24T08:42:19;10.20;99.90
49441;DHT22;35317;51.978;6.296;2023-04-24T08:47:22;10.10;99.90
49441;DHT22;35317;51.978;6.296;2023-04-24T08:52:25;10.10;99.90
49441;DHT22;35317;51.978;6.296;2023-04-24T08:57:26;9.90;99.90
49441;DHT22;35317;51.978;6.296;2023-04-24T09:02:27;9.80;99.90
49441;DHT22;35317;51.978;6.296;2023-04-24T09:07:30;9.60;99.90
49441;DHT22;35317;51.978;6.296;2023-04-24T09:12:34;9.50;99.90
49441;DHT22;35317;51.978;6.296;2023-04-24T09:17:35;9.50;99.90
49441;DHT22;35317;51.978;6.296;2023-04-24T09:22:36;9.40;99.90
49441;DHT22;35317;51.978;6.296;2023-04-24T09:27:44;9.40;99.90
49441;DHT22;35317;51.978;6.296;2023-04-24T09:32:45;9.50;99.90
49441;DHT22;35317;51.978;6.296;2023-04-24T09:37:47;9.50;99.90
49441;DHT22;35317;51.978;6.296;2023-04-24T09:42:54;9.50;99.90
49441;DHT22;35317;51.978;6.296;2023-04-24T09:47:57;9.50;99.90
49441;DHT22;35317;51.978;6.296;2023-04-24T09:53:07;9.50;99.90
49441;DHT22;35317;51.978;6.296;2023-04-24T09:58:09;9.40;99.90
49441;DHT22;35317;51.978;6.296;2023-04-24T10:03:09;9.40;99.90
49441;DHT22;35317;51.978;6.296;2023-04-24T10:08:12;9.30;99.90
49441;DHT22;35317;51.978;6.296;2023-04-24T10:13:14;9.20;99.90
49441;DHT22;35317;51.978;6.296;2023-04-24T10:18:20;9.30;99.90
49441;DHT22;35317;51.978;6.296;2023-04-24T10:23:22;9.40;99.90
49441;DHT22;35317;51.978;6.296;2023-04-24T10:28:24;9.50;99.90
49441;DHT22;35317;51.978;6.296;2023-04-24T10:33:26;9.70;99.90
49441;DHT22;35317;51.978;6.296;2023-04-24T10:38:28;9.70;99.90
49441;DHT22;35317;51.978;6.296;2023-04-24T10:43:30;9.90;99.90
49441;DHT22;35317;51.978;6.296;2023-04-24T10:48:41;10.10;99.90
49441;DHT22;35317;51.978;6.296;2023-04-24T10:53:43;10.40;99.90
49441;DHT22;35317;51.978;6.296;2023-04-24T10:58:51;10.50;99.90
49441;DHT22;35317;51.978;6.296;2023-04-24T11:03:59;10.70;99.90
49441;DHT22;35317;51.978;6.296;2023-04-24T11:09:15;10.60;99.90
49441;DHT22;35317;51.978;6.296;2023-04-24T11:14:16;10.40;99.90
49441;DHT22;35317;51.978;6.296;2023-04-24T11:19:27;10.30;99.90
49441;DHT22;35317;51.978;6.296;2023-04-24T11:29:46;9.90;99.90
49441;DHT22;35317;51.978;6.296;2023-04-24T11:35:06;9.90;99.90
49441;DHT22;35317;51.978;6.296;2023-04-24T11:40:09;10.20;99.90
49441;DHT22;35317;51.978;6.296;2023-04-24T11:45:12;10.50;99.90
49441;DHT22;35317;51.978;6.296;2023-04-24T11:50:16;10.60;99.90
49441;DHT22;35317;51.978;6.296;2023-04-24T12:00:21;10.60;99.90
49441;DHT22;35317;51.978;6.296;2023-04-24T12:05:27;10.80;99.90
49441;DHT22;35317;51.978;6.296;2023-04-24T12:10:31;10.90;99.90
49441;DHT22;35317;51.978;6.296;2023-04-24T12:15:32;10.90;99.90
49441;DHT22;35317;51.978;6.296;2023-04-24T12:20:35;10.70;99.90
49441;DHT22;35317;51.978;6.296;2023-04-24T12:25:38;10.70;99.90
49441;DHT22;35317;51.978;6.296;2023-04-24T12:36:41;10.50;99.90
49441;DHT22;35317;51.978;6.296;2023-04-24T12:41:57;10.20;99.90
49441;DHT22;35317;51.978;6.296;2023-04-24T12:47:04;9.90;99.90
49441;DHT22;35317;51.978;6.296;2023-04-24T12:52:05;9.80;99.90
49441;DHT22;35317;51.978;6.296;2023-04-24T12:57:08;10.00;99.90
49441;DHT22;35317;51.978;6.296;2023-04-24T13:02:10;10.40;99.90
49441;DHT22;35317;51.978;6.296;2023-04-24T13:07:11;10.70;99.90
49441;DHT22;35317;51.978;6.296;2023-04-24T13:12:15;11.10;99.90
49441;DHT22;35317;51.978;6.296;2023-04-24T13:17:16;11.40;99.90
49441;DHT22;35317;51.978;6.296;2023-04-24T13:22:20;11.50;99.80
49441;DHT22;35317;51.978;6.296;2023-04-24T13:27:24;11.40;99.30
49441;DHT22;35317;51.978;6.296;2023-04-24T13:32:26;11.20;98.40
49441;DHT22;35317;51.978;6.296;2023-04-24T13:38:08;10.90;98.70
49441;DHT22;35317;51.978;6.296;2023-04-24T13:49:58;11.50;99.00
49441;DHT22;35317;51.978;6.296;2023-04-24T13:55:28;11.60;98.60
49441;DHT22;35317;51.978;6.296;2023-04-24T14:00:39;11.40;98.10
49441;DHT22;35317;51.978;6.296;2023-04-24T14:05:43;11.20;97.60
49441;DHT22;35317;51.978;6.296;2023-04-24T14:10:47;10.90;97.60
49441;DHT22;35317;51.978;6.296;2023-04-24T14:15:48;10.70;97.70
49441;DHT22;35317;51.978;6.296;2023-04-24T14:20:51;10.70;97.70
49441;DHT22;35317;51.978;6.296;2023-04-24T14:25:52;10.60;98.10
49441;DHT22;35317;51.978;6.296;2023-04-24T14:30:53;10.50;98.60
49441;DHT22;35317;51.978;6.296;2023-04-24T14:35:54;10.50;99.30
49441;DHT22;35317;51.978;6.296;2023-04-24T14:40:55;10.90;99.60
49441;DHT22;35317;51.978;6.296;2023-04-24T14:45:56;11.10;99.30
49441;DHT22;35317;51.978;6.296;2023-04-24T14:51:22;11.30;98.80
49441;DHT22;35317;51.978;6.296;2023-04-24T14:56:27;11.40;97.30
49441;DHT22;35317;51.978;6.296;2023-04-24T15:01:28;11.50;96.30
49441;DHT22;35317;51.978;6.296;2023-04-24T15:06:30;11.50;95.90
49441;DHT22;35317;51.978;6.296;2023-04-24T15:11:33;11.50;95.10
49441;DHT22;35317;51.978;6.296;2023-04-24T15:16:34;11.50;94.30
49441;DHT22;35317;51.978;6.296;2023-04-24T15:21:36;11.40;93.50
49441;DHT22;35317;51.978;6.296;2023-04-24T15:26:40;11.30;93.40
49441;DHT22;35317;51.978;6.296;2023-04-24T15:31:40;11.30;93.30
49441;DHT22;35317;51.978;6.296;2023-04-24T15:36:42;11.40;92.80
49441;DHT22;35317;51.978;6.296;2023-04-24T15:41:42;11.50;92.50
49441;DHT22;35317;51.978;6.296;2023-04-24T15:46:43;11.60;92.40
49441;DHT22;35317;51.978;6.296;2023-04-24T15:51:44;11.60;92.20
49441;DHT22;35317;51.978;6.296;2023-04-24T15:56:45;11.60;91.30
49441;DHT22;35317;51.978;6.296;2023-04-24T16:01:46;11.50;91.30
49441;DHT22;35317;51.978;6.296;2023-04-24T16:06:46;11.50;91.10
49441;DHT22;35317;51.978;6.296;2023-04-24T16:11:48;11.60;91.30
49441;DHT22;35317;51.978;6.296;2023-04-24T16:16:48;11.70;91.30
49441;DHT22;35317;51.978;6.296;2023-04-24T16:21:50;11.80;91.40
49441;DHT22;35317;51.978;6.296;2023-04-24T16:26:54;11.70;90.70
49441;DHT22;35317;51.978;6.296;2023-04-24T16:31:55;11.60;90.50
49441;DHT22;35317;51.978;6.296;2023-04-24T16:36:56;11.40;90.90
49441;DHT22;35317;51.978;6.296;2023-04-24T16:41:57;11.40;91.40
49441;DHT22;35317;51.978;6.296;2023-04-24T16:46:58;11.40;91.50
49441;DHT22;35317;51.978;6.296;2023-04-24T16:51:59;11.30;91.50
49441;DHT22;35317;51.978;6.296;2023-04-24T16:57:00;11.10;91.70
49441;DHT22;35317;51.978;6.296;2023-04-24T17:02:02;11.10;92.00
49441;DHT22;35317;51.978;6.296;2023-04-24T17:07:03;11.00;92.30
49441;DHT22;35317;51.978;6.296;2023-04-24T17:12:04;10.90;92.40
49441;DHT22;35317;51.978;6.296;2023-04-24T17:17:05;10.90;92.70
49441;DHT22;35317;51.978;6.296;2023-04-24T17:22:06;10.80;92.80
49441;DHT22;35317;51.978;6.296;2023-04-24T17:27:07;10.70;93.00
49441;DHT22;35317;51.978;6.296;2023-04-24T17:32:08;10.70;93.10
49441;DHT22;35317;51.978;6.296;2023-04-24T17:37:09;10.60;93.20
49441;DHT22;35317;51.978;6.296;2023-04-24T17:42:10;10.60;93.10
49441;DHT22;35317;51.978;6.296;2023-04-24T17:47:10;10.60;92.70
49441;DHT22;35317;51.978;6.296;2023-04-24T17:52:11;10.50;92.40
49441;DHT22;35317;51.978;6.296;2023-04-24T17:57:14;10.50;92.40
49441;DHT22;35317;51.978;6.296;2023-04-24T18:02:15;10.40;92.30
49441;DHT22;35317;51.978;6.296;2023-04-24T18:07:16;10.30;92.30
49441;DHT22;35317;51.978;6.296;2023-04-24T18:12:16;10.20;91.90
49441;DHT22;35317;51.978;6.296;2023-04-24T18:17:17;10.10;91.70
49441;DHT22;35317;51.978;6.296;2023-04-24T18:22:18;10.00;92.10
49441;DHT22;35317;51.978;6.296;2023-04-24T18:27:18;9.90;92.00
49441;DHT22;35317;51.978;6.296;2023-04-24T18:32:19;9.80;92.10
49441;DHT22;35317;51.978;6.296;2023-04-24T18:37:20;9.70;92.30
49441;DHT22;35317;51.978;6.296;2023-04-24T18:42:21;9.70;92.50
49441;DHT22;35317;51.978;6.296;2023-04-24T18:47:22;9.60;92.70
49441;DHT22;35317;51.978;6.296;2023-04-24T18:52:23;9.50;92.90
49441;DHT22;35317;51.978;6.296;2023-04-24T18:57:24;9.50;93.10
49441;DHT22;35317;51.978;6.296;2023-04-24T19:02:25;9.40;93.20
49441;DHT22;35317;51.978;6.296;2023-04-24T19:07:26;9.30;93.30
49441;DHT22;35317;51.978;6.296;2023-04-24T19:12:27;9.20;93.50
49441;DHT22;35317;51.978;6.296;2023-04-24T19:17:27;9.10;93.60
49441;DHT22;35317;51.978;6.296;2023-04-24T19:22:29;8.90;93.80
49441;DHT22;35317;51.978;6.296;2023-04-24T19:27:30;8.80;93.90
49441;DHT22;35317;51.978;6.296;2023-04-24T19:32:31;8.80;94.10
49441;DHT22;35317;51.978;6.296;2023-04-24T19:37:31;8.80;94.30
49441;DHT22;35317;51.978;6.296;2023-04-24T19:42:33;8.80;94.40
49441;DHT22;35317;51.978;6.296;2023-04-24T19:47:34;8.70;94.50
49441;DHT22;35317;51.978;6.296;2023-04-24T19:52:35;8.70;94.60
49441;DHT22;35317;51.978;6.296;2023-04-24T19:57:36;8.70;94.80
49441;DHT22;35317;51.978;6.296;2023-04-24T20:02:37;8.70;95.10
49441;DHT22;35317;51.978;6.296;2023-04-24T20:07:37;8.70;95.50
49441;DHT22;35317;51.978;6.296;2023-04-24T20:12:38;8.70;95.70
49441;DHT22;35317;51.978;6.296;2023-04-24T20:17:39;8.80;95.90
49441;DHT22;35317;51.978;6.296;2023-04-24T20:22:40;8.80;96.10
49441;DHT22;35317;51.978;6.296;2023-04-24T20:27:41;8.80;96.20
49441;DHT22;35317;51.978;6.296;2023-04-24T20:32:42;8.80;96.30
49441;DHT22;35317;51.978;6.296;2023-04-24T20:37:43;8.80;96.40
49441;DHT22;35317;51.978;6.296;2023-04-24T20:42:44;8.80;96.60
49441;DHT22;35317;51.978;6.296;2023-04-24T20:47:45;8.80;96.80
49441;DHT22;35317;51.978;6.296;2023-04-24T20:52:46;8.70;96.90
49441;DHT22;35317;51.978;6.296;2023-04-24T20:57:47;8.60;97.10
49441;DHT22;35317;51.978;6.296;2023-04-24T21:02:48;8.50;97.30
49441;DHT22;35317;51.978;6.296;2023-04-24T21:07:48;8.30;97.30
49441;DHT22;35317;51.978;6.296;2023-04-24T21:12:51;8.20;97.60
49441;DHT22;35317;51.978;6.296;2023-04-24T21:17:52;8.10;97.80
49441;DHT22;35317;51.978;6.296;2023-04-24T21:22:53;8.10;98.10
49441;DHT22;35317;51.978;6.296;2023-04-24T21:27:53;8.10;98.30
49441;DHT22;35317;51.978;6.296;2023-04-24T21:32:56;8.10;98.60
49441;DHT22;35317;51.978;6.296;2023-04-24T21:37:56;8.10;98.80
49441;DHT22;35317;51.978;6.296;2023-04-24T21:42:57;8.10;99.00
49441;DHT22;35317;51.978;6.296;2023-04-24T21:47:58;8.10;99.20
49441;DHT22;35317;51.978;6.296;2023-04-24T21:53:00;8.10;99.30
49441;DHT22;35317;51.978;6.296;2023-04-24T21:58:01;8.00;99.30
49441;DHT22;35317;51.978;6.296;2023-04-24T22:03:03;8.00;99.50
49441;DHT22;35317;51.978;6.296;2023-04-24T22:08:04;8.00;99.70
49441;DHT22;35317;51.978;6.296;2023-04-24T22:13:04;8.00;99.80
49441;DHT22;35317;51.978;6.296;2023-04-24T22:18:05;7.90;99.90
49441;DHT22;35317;51.978;6.296;2023-04-24T22:23:06;7.90;99.90
49441;DHT22;35317;51.978;6.296;2023-04-24T22:28:07;7.90;99.90
49441;DHT22;35317;51.978;6.296;2023-04-24T22:33:07;7.90;99.90
49441;DHT22;35317;51.978;6.296;2023-04-24T22:38:08;7.80;99.90
49441;DHT22;35317;51.978;6.296;2023-04-24T22:43:09;7.90;99.90
49441;DHT22;35317;51.978;6.296;2023-04-24T22:48:09;7.90;99.90
49441;DHT22;35317;51.978;6.296;2023-04-24T22:53:10;7.90;99.90
49441;DHT22;35317;51.978;6.296;2023-04-24T22:58:11;8.00;99.90
49441;DHT22;35317;51.978;6.296;2023-04-24T23:03:12;8.00;99.90
49441;DHT22;35317;51.978;6.296;2023-04-24T23:08:13;8.00;99.90
49441;DHT22;35317;51.978;6.296;2023-04-24T23:13:14;8.00;99.90
49441;DHT22;35317;51.978;6.296;2023-04-24T23:18:15;8.00;99.90
49441;DHT22;35317;51.978;6.296;2023-04-24T23:23:15;8.10;99.90
49441;DHT22;35317;51.978;6.296;2023-04-24T23:28:16;8.10;99.90
49441;DHT22;35317;51.978;6.296;2023-04-24T23:33:17;8.10;99.90
49441;DHT22;35317;51.978;6.296;2023-04-24T23:38:18;8.00;99.90
49441;DHT22;35317;51.978;6.296;2023-04-24T23:43:18;8.00;99.90
49441;DHT22;35317;51.978;6.296;2023-04-24T23:48:19;8.00;99.90
49441;DHT22;35317;51.978;6.296;2023-04-24T23:53:20;8.00;99.90
49441;DHT22;35317;51.978;6.296;2023-04-24T23:58:21;7.90;99.90
